sensor_id;sensor_type;location;lat;lon;timestamp;temperature;humidity
19180;DHT22;9722;48.754;8.868;2022-11-15T00:01:09;9.00;96.80
19180;DHT22;9722;48.754;8.868;2022-11-15T00:04:29;9.00;96.90
19180;DHT22;9722;48.754;8.868;2022-11-15T00:07:50;9.00;97.00
19180;DHT22;9722;48.754;8.868;2022-11-15T00:11:12;8.90;96.90
19180;DHT22;9722;48.754;8.868;2022-11-15T00:14:33;8.80;97.00
19180;DHT22;9722;48.754;8.868;2022-11-15T00:17:53;8.70;97.00
19180;DHT22;9722;48.754;8.868;2022-11-15T00:21:14;8.60;97.10
19180;DHT22;9722;48.754;8.868;2022-11-15T00:24:35;8.60;97.20
19180;DHT22;9722;48.754;8.868;2022-11-15T00:27:56;8.50;97.40
19180;DHT22;9722;48.754;8.868;2022-11-15T00:31:17;8.50;97.60
19180;DHT22;9722;48.754;8.868;2022-11-15T00:34:38;8.40;97.70
19180;DHT22;9722;48.754;8.868;2022-11-15T00:37:59;8.40;97.70
19180;DHT22;9722;48.754;8.868;2022-11-15T00:41:19;8.40;97.60
19180;DHT22;9722;48.754;8.868;2022-11-15T00:44:40;8.40;97.60
19180;DHT22;9722;48.754;8.868;2022-11-15T00:48:00;8.30;97.70
19180;DHT22;9722;48.754;8.868;2022-11-15T00:51:21;8.20;97.80
19180;DHT22;9722;48.754;8.868;2022-11-15T00:54:41;8.00;97.80
19180;DHT22;9722;48.754;8.868;2022-11-15T00:58:02;7.90;98.00
19180;DHT22;9722;48.754;8.868;2022-11-15T01:01:23;7.80;98.50
19180;DHT22;9722;48.754;8.868;2022-11-15T01:04:43;7.80;98.40
19180;DHT22;9722;48.754;8.868;2022-11-15T01:08:04;7.70;98.50
19180;DHT22;9722;48.754;8.868;2022-11-15T01:11:24;7.70;98.60
19180;DHT22;9722;48.754;8.868;2022-11-15T01:14:45;7.70;98.70
19180;DHT22;9722;48.754;8.868;2022-11-15T01:18:05;7.70;98.90
19180;DHT22;9722;48.754;8.868;2022-11-15T01:21:26;7.70;98.90
19180;DHT22;9722;48.754;8.868;2022-11-15T01:24:46;7.70;98.90
19180;DHT22;9722;48.754;8.868;2022-11-15T01:28:07;7.70;99.00
19180;DHT22;9722;48.754;8.868;2022-11-15T01:31:28;7.70;99.10
19180;DHT22;9722;48.754;8.868;2022-11-15T01:34:48;7.80;99.10
19180;DHT22;9722;48.754;8.868;2022-11-15T01:38:09;7.80;99.20
19180;DHT22;9722;48.754;8.868;2022-11-15T01:41:32;7.90;99.20
19180;DHT22;9722;48.754;8.868;2022-11-15T01:44:53;7.90;99.10
19180;DHT22;9722;48.754;8.868;2022-11-15T01:48:15;7.90;99.10
19180;DHT22;9722;48.754;8.868;2022-11-15T01:51:35;7.90;99.00
19180;DHT22;9722;48.754;8.868;2022-11-15T01:55:02;7.90;99.00
19180;DHT22;9722;48.754;8.868;2022-11-15T01:58:23;7.90;98.90
19180;DHT22;9722;48.754;8.868;2022-11-15T02:01:44;7.70;98.70
19180;DHT22;9722;48.754;8.868;2022-11-15T02:05:05;7.60;98.70
19180;DHT22;9722;48.754;8.868;2022-11-15T02:08:26;7.50;98.90
19180;DHT22;9722;48.754;8.868;2022-11-15T02:11:47;7.40;99.00
19180;DHT22;9722;48.754;8.868;2022-11-15T02:15:10;7.30;99.20
19180;DHT22;9722;48.754;8.868;2022-11-15T02:18:38;7.30;99.40
19180;DHT22;9722;48.754;8.868;2022-11-15T02:29:48;7.30;99.80
19180;DHT22;9722;48.754;8.868;2022-11-15T02:33:26;7.40;99.90
19180;DHT22;9722;48.754;8.868;2022-11-15T02:43:56;7.40;99.90
19180;DHT22;9722;48.754;8.868;2022-11-15T02:47:19;7.40;99.90
19180;DHT22;9722;48.754;8.868;2022-11-15T02:50:41;7.50;99.90
19180;DHT22;9722;48.754;8.868;2022-11-15T02:54:02;7.40;99.90
19180;DHT22;9722;48.754;8.868;2022-11-15T03:01:03;7.40;99.90
19180;DHT22;9722;48.754;8.868;2022-11-15T03:08:31;7.30;99.90
19180;DHT22;9722;48.754;8.868;2022-11-15T03:12:04;7.20;99.90
19180;DHT22;9722;48.754;8.868;2022-11-15T03:15:31;7.20;99.90
19180;DHT22;9722;48.754;8.868;2022-11-15T03:19:06;7.10;99.90
19180;DHT22;9722;48.754;8.868;2022-11-15T03:22:34;7.10;99.90
19180;DHT22;9722;48.754;8.868;2022-11-15T03:25:58;7.10;99.90
19180;DHT22;9722;48.754;8.868;2022-11-15T03:29:26;7.20;99.90
19180;DHT22;9722;48.754;8.868;2022-11-15T03:32:56;7.20;99.90
19180;DHT22;9722;48.754;8.868;2022-11-15T03:36:17;7.10;99.90
19180;DHT22;9722;48.754;8.868;2022-11-15T03:39:38;7.10;99.90
19180;DHT22;9722;48.754;8.868;2022-11-15T03:43:52;7.10;99.90
19180;DHT22;9722;48.754;8.868;2022-11-15T03:47:03;7.10;99.90
19180;DHT22;9722;48.754;8.868;2022-11-15T03:50:26;7.20;99.90
19180;DHT22;9722;48.754;8.868;2022-11-15T03:53:47;7.20;99.90
19180;DHT22;9722;48.754;8.868;2022-11-15T03:57:07;7.20;99.90
19180;DHT22;9722;48.754;8.868;2022-11-15T04:00:28;7.20;99.90
19180;DHT22;9722;48.754;8.868;2022-11-15T04:03:49;7.20;99.90
19180;DHT22;9722;48.754;8.868;2022-11-15T04:07:10;7.20;99.90
19180;DHT22;9722;48.754;8.868;2022-11-15T04:10:30;7.30;99.90
19180;DHT22;9722;48.754;8.868;2022-11-15T04:13:51;7.40;99.90
19180;DHT22;9722;48.754;8.868;2022-11-15T04:17:11;7.40;99.90
19180;DHT22;9722;48.754;8.868;2022-11-15T04:20:32;7.50;99.90
19180;DHT22;9722;48.754;8.868;2022-11-15T04:24:11;7.60;99.90
19180;DHT22;9722;48.754;8.868;2022-11-15T04:27:34;7.70;99.90
19180;DHT22;9722;48.754;8.868;2022-11-15T04:30:55;7.70;99.90
19180;DHT22;9722;48.754;8.868;2022-11-15T04:34:15;7.80;99.90
19180;DHT22;9722;48.754;8.868;2022-11-15T04:37:36;7.80;99.90
19180;DHT22;9722;48.754;8.868;2022-11-15T04:40:56;7.80;99.90
19180;DHT22;9722;48.754;8.868;2022-11-15T04:44:17;7.70;99.90
19180;DHT22;9722;48.754;8.868;2022-11-15T04:47:37;7.60;99.90
19180;DHT22;9722;48.754;8.868;2022-11-15T04:50:58;7.60;99.90
19180;DHT22;9722;48.754;8.868;2022-11-15T04:54:19;7.60;99.90
19180;DHT22;9722;48.754;8.868;2022-11-15T04:57:39;7.50;99.90
19180;DHT22;9722;48.754;8.868;2022-11-15T05:01:09;7.50;99.90
19180;DHT22;9722;48.754;8.868;2022-11-15T05:04:30;7.50;99.90
19180;DHT22;9722;48.754;8.868;2022-11-15T05:07:51;7.50;99.90
19180;DHT22;9722;48.754;8.868;2022-11-15T05:11:12;7.60;99.90
19180;DHT22;9722;48.754;8.868;2022-11-15T05:14:32;7.60;99.90
19180;DHT22;9722;48.754;8.868;2022-11-15T05:17:58;7.60;99.90
19180;DHT22;9722;48.754;8.868;2022-11-15T05:21:19;7.70;99.90
19180;DHT22;9722;48.754;8.868;2022-11-15T05:24:40;7.80;99.90
19180;DHT22;9722;48.754;8.868;2022-11-15T05:28:00;8.00;99.90
19180;DHT22;9722;48.754;8.868;2022-11-15T05:31:21;8.10;99.90
19180;DHT22;9722;48.754;8.868;2022-11-15T05:34:42;8.10;99.90
19180;DHT22;9722;48.754;8.868;2022-11-15T05:38:03;8.10;99.90
19180;DHT22;9722;48.754;8.868;2022-11-15T05:41:43;8.00;99.90
19180;DHT22;9722;48.754;8.868;2022-11-15T05:45:06;8.00;99.90
19180;DHT22;9722;48.754;8.868;2022-11-15T05:48:28;7.90;99.90
19180;DHT22;9722;48.754;8.868;2022-11-15T05:51:50;7.90;99.90
19180;DHT22;9722;48.754;8.868;2022-11-15T05:55:11;7.80;99.90
19180;DHT22;9722;48.754;8.868;2022-11-15T05:58:33;7.70;99.90
19180;DHT22;9722;48.754;8.868;2022-11-15T06:01:53;7.70;99.90
19180;DHT22;9722;48.754;8.868;2022-11-15T06:05:14;7.60;99.90
19180;DHT22;9722;48.754;8.868;2022-11-15T06:08:34;7.50;99.90
19180;DHT22;9722;48.754;8.868;2022-11-15T06:11:55;7.40;99.90
19180;DHT22;9722;48.754;8.868;2022-11-15T06:15:15;7.30;99.90
19180;DHT22;9722;48.754;8.868;2022-11-15T06:18:36;7.30;99.90
19180;DHT22;9722;48.754;8.868;2022-11-15T06:21:57;7.30;99.90
19180;DHT22;9722;48.754;8.868;2022-11-15T06:25:18;7.30;99.90
19180;DHT22;9722;48.754;8.868;2022-11-15T06:28:38;7.40;99.90
19180;DHT22;9722;48.754;8.868;2022-11-15T06:31:59;7.40;99.90
19180;DHT22;9722;48.754;8.868;2022-11-15T06:35:19;7.40;99.90
19180;DHT22;9722;48.754;8.868;2022-11-15T06:38:40;7.50;99.90
19180;DHT22;9722;48.754;8.868;2022-11-15T06:42:00;7.50;99.90
19180;DHT22;9722;48.754;8.868;2022-11-15T06:45:21;7.50;99.90
19180;DHT22;9722;48.754;8.868;2022-11-15T06:48:41;7.60;99.90
19180;DHT22;9722;48.754;8.868;2022-11-15T06:52:02;7.60;99.90
19180;DHT22;9722;48.754;8.868;2022-11-15T06:55:22;7.70;99.90
19180;DHT22;9722;48.754;8.868;2022-11-15T06:58:43;7.80;99.90
19180;DHT22;9722;48.754;8.868;2022-11-15T07:02:03;8.10;99.90
19180;DHT22;9722;48.754;8.868;2022-11-15T07:05:24;8.60;99.90
19180;DHT22;9722;48.754;8.868;2022-11-15T07:08:44;8.60;99.90
19180;DHT22;9722;48.754;8.868;2022-11-15T07:12:06;8.60;99.90
19180;DHT22;9722;48.754;8.868;2022-11-15T07:15:26;8.60;99.90
19180;DHT22;9722;48.754;8.868;2022-11-15T07:18:47;8.70;99.80
19180;DHT22;9722;48.754;8.868;2022-11-15T07:22:07;8.90;99.40
19180;DHT22;9722;48.754;8.868;2022-11-15T07:25:28;9.00;99.00
19180;DHT22;9722;48.754;8.868;2022-11-15T07:28:49;9.00;98.90
19180;DHT22;9722;48.754;8.868;2022-11-15T07:32:09;9.20;99.30
19180;DHT22;9722;48.754;8.868;2022-11-15T07:35:30;9.40;98.60
19180;DHT22;9722;48.754;8.868;2022-11-15T07:38:51;9.80;98.10
19180;DHT22;9722;48.754;8.868;2022-11-15T07:42:11;10.30;97.20
19180;DHT22;9722;48.754;8.868;2022-11-15T07:45:50;11.40;95.80
19180;DHT22;9722;48.754;8.868;2022-11-15T07:49:11;12.00;93.50
19180;DHT22;9722;48.754;8.868;2022-11-15T07:52:31;12.10;92.50
19180;DHT22;9722;48.754;8.868;2022-11-15T07:55:52;12.00;92.10
19180;DHT22;9722;48.754;8.868;2022-11-15T07:59:13;12.00;92.00
19180;DHT22;9722;48.754;8.868;2022-11-15T08:02:34;12.30;91.30
19180;DHT22;9722;48.754;8.868;2022-11-15T08:05:54;12.50;90.20
19180;DHT22;9722;48.754;8.868;2022-11-15T08:09:15;12.50;89.80
19180;DHT22;9722;48.754;8.868;2022-11-15T08:12:35;13.10;87.80
19180;DHT22;9722;48.754;8.868;2022-11-15T08:16:00;13.70;84.60
19180;DHT22;9722;48.754;8.868;2022-11-15T08:19:21;14.30;81.20
19180;DHT22;9722;48.754;8.868;2022-11-15T08:22:41;14.90;78.40
19180;DHT22;9722;48.754;8.868;2022-11-15T08:26:03;15.30;76.60
19180;DHT22;9722;48.754;8.868;2022-11-15T08:29:24;15.60;75.20
19180;DHT22;9722;48.754;8.868;2022-11-15T08:32:44;15.90;74.40
19180;DHT22;9722;48.754;8.868;2022-11-15T08:36:05;16.00;73.20
19180;DHT22;9722;48.754;8.868;2022-11-15T08:39:26;16.20;72.10
19180;DHT22;9722;48.754;8.868;2022-11-15T08:42:47;16.10;71.50
19180;DHT22;9722;48.754;8.868;2022-11-15T08:46:11;16.00;71.10
19180;DHT22;9722;48.754;8.868;2022-11-15T08:49:32;15.80;71.10
19180;DHT22;9722;48.754;8.868;2022-11-15T08:52:53;15.70;71.50
19180;DHT22;9722;48.754;8.868;2022-11-15T08:56:14;16.10;70.90
19180;DHT22;9722;48.754;8.868;2022-11-15T08:59:36;16.10;69.90
19180;DHT22;9722;48.754;8.868;2022-11-15T09:02:56;15.90;70.20
19180;DHT22;9722;48.754;8.868;2022-11-15T09:06:17;15.70;70.50
19180;DHT22;9722;48.754;8.868;2022-11-15T09:09:38;15.60;70.60
19180;DHT22;9722;48.754;8.868;2022-11-15T09:12:59;15.50;70.90
19180;DHT22;9722;48.754;8.868;2022-11-15T09:16:19;15.30;71.10
19180;DHT22;9722;48.754;8.868;2022-11-15T09:19:40;15.30;71.50
19180;DHT22;9722;48.754;8.868;2022-11-15T09:23:01;16.00;71.10
19180;DHT22;9722;48.754;8.868;2022-11-15T09:26:22;17.20;68.80
19180;DHT22;9722;48.754;8.868;2022-11-15T09:29:43;17.90;66.40
19180;DHT22;9722;48.754;8.868;2022-11-15T09:33:08;18.00;65.20
19180;DHT22;9722;48.754;8.868;2022-11-15T09:36:28;17.70;64.40
19180;DHT22;9722;48.754;8.868;2022-11-15T09:39:49;17.30;65.30
19180;DHT22;9722;48.754;8.868;2022-11-15T09:43:25;16.90;65.90
19180;DHT22;9722;48.754;8.868;2022-11-15T09:50:50;16.10;67.40
19180;DHT22;9722;48.754;8.868;2022-11-15T09:57:57;15.70;69.00
19180;DHT22;9722;48.754;8.868;2022-11-15T10:04:54;15.40;70.00
19180;DHT22;9722;48.754;8.868;2022-11-15T10:08:40;15.40;70.20
19180;DHT22;9722;48.754;8.868;2022-11-15T10:12:07;15.40;70.20
19180;DHT22;9722;48.754;8.868;2022-11-15T10:15:29;15.50;70.30
19180;DHT22;9722;48.754;8.868;2022-11-15T10:22:29;15.50;70.50
19180;DHT22;9722;48.754;8.868;2022-11-15T10:25:55;15.50;70.50
19180;DHT22;9722;48.754;8.868;2022-11-15T10:29:21;15.50;71.60
19180;DHT22;9722;48.754;8.868;2022-11-15T10:32:44;15.40;71.00
19180;DHT22;9722;48.754;8.868;2022-11-15T10:36:19;15.40;71.20
19180;DHT22;9722;48.754;8.868;2022-11-15T10:39:40;15.40;71.40
19180;DHT22;9722;48.754;8.868;2022-11-15T10:43:19;15.40;71.50
19180;DHT22;9722;48.754;8.868;2022-11-15T10:46:41;15.40;71.70
19180;DHT22;9722;48.754;8.868;2022-11-15T10:50:29;15.30;71.90
19180;DHT22;9722;48.754;8.868;2022-11-15T10:53:51;15.20;72.10
19180;DHT22;9722;48.754;8.868;2022-11-15T10:57:17;15.20;72.40
19180;DHT22;9722;48.754;8.868;2022-11-15T11:00:38;15.10;72.70
19180;DHT22;9722;48.754;8.868;2022-11-15T11:04:09;15.10;73.00
19180;DHT22;9722;48.754;8.868;2022-11-15T11:07:32;15.10;73.30
19180;DHT22;9722;48.754;8.868;2022-11-15T11:10:54;15.10;73.60
19180;DHT22;9722;48.754;8.868;2022-11-15T11:14:29;15.10;73.60
19180;DHT22;9722;48.754;8.868;2022-11-15T11:18:10;15.10;73.50
19180;DHT22;9722;48.754;8.868;2022-11-15T11:32:30;15.30;74.10
19180;DHT22;9722;48.754;8.868;2022-11-15T11:40:07;15.30;74.10
19180;DHT22;9722;48.754;8.868;2022-11-15T11:43:52;15.40;74.20
19180;DHT22;9722;48.754;8.868;2022-11-15T11:47:24;15.50;74.30
19180;DHT22;9722;48.754;8.868;2022-11-15T11:50:50;15.70;74.10
19180;DHT22;9722;48.754;8.868;2022-11-15T11:54:14;15.80;73.60
19180;DHT22;9722;48.754;8.868;2022-11-15T12:01:26;16.00;73.20
19180;DHT22;9722;48.754;8.868;2022-11-15T12:04:51;16.00;72.80
19180;DHT22;9722;48.754;8.868;2022-11-15T12:12:11;15.90;72.40
19180;DHT22;9722;48.754;8.868;2022-11-15T12:19:03;15.70;72.90
19180;DHT22;9722;48.754;8.868;2022-11-15T12:22:43;15.60;72.90
19180;DHT22;9722;48.754;8.868;2022-11-15T12:26:08;15.60;73.20
19180;DHT22;9722;48.754;8.868;2022-11-15T12:29:42;15.60;73.40
19180;DHT22;9722;48.754;8.868;2022-11-15T12:33:03;15.60;73.50
19180;DHT22;9722;48.754;8.868;2022-11-15T12:36:37;15.50;73.60
19180;DHT22;9722;48.754;8.868;2022-11-15T12:43:40;15.50;74.20
19180;DHT22;9722;48.754;8.868;2022-11-15T12:47:22;15.50;74.30
19180;DHT22;9722;48.754;8.868;2022-11-15T12:50:55;15.60;74.40
19180;DHT22;9722;48.754;8.868;2022-11-15T12:57:42;15.50;74.50
19180;DHT22;9722;48.754;8.868;2022-11-15T13:01:05;15.50;74.70
19180;DHT22;9722;48.754;8.868;2022-11-15T13:04:28;15.60;74.90
19180;DHT22;9722;48.754;8.868;2022-11-15T13:11:48;15.80;74.60
19180;DHT22;9722;48.754;8.868;2022-11-15T13:18:36;15.80;74.40
19180;DHT22;9722;48.754;8.868;2022-11-15T13:21:57;15.80;74.50
19180;DHT22;9722;48.754;8.868;2022-11-15T13:29:16;15.60;74.40
19180;DHT22;9722;48.754;8.868;2022-11-15T13:32:38;15.50;74.50
19180;DHT22;9722;48.754;8.868;2022-11-15T13:36:05;15.30;74.90
19180;DHT22;9722;48.754;8.868;2022-11-15T13:39:32;15.20;75.30
19180;DHT22;9722;48.754;8.868;2022-11-15T13:42:53;15.10;75.60
19180;DHT22;9722;48.754;8.868;2022-11-15T13:49:41;14.80;76.90
19180;DHT22;9722;48.754;8.868;2022-11-15T13:53:03;14.70;77.40
19180;DHT22;9722;48.754;8.868;2022-11-15T13:56:25;14.50;78.00
19180;DHT22;9722;48.754;8.868;2022-11-15T13:59:54;14.40;78.50
19180;DHT22;9722;48.754;8.868;2022-11-15T14:03:25;14.40;79.10
19180;DHT22;9722;48.754;8.868;2022-11-15T14:06:50;14.30;79.40
19180;DHT22;9722;48.754;8.868;2022-11-15T14:10:35;14.20;79.40
19180;DHT22;9722;48.754;8.868;2022-11-15T14:21:05;14.20;80.20
19180;DHT22;9722;48.754;8.868;2022-11-15T14:24:30;14.20;80.40
19180;DHT22;9722;48.754;8.868;2022-11-15T14:31:28;14.10;80.80
19180;DHT22;9722;48.754;8.868;2022-11-15T14:34:57;14.00;80.90
19180;DHT22;9722;48.754;8.868;2022-11-15T14:38:18;14.00;81.40
19180;DHT22;9722;48.754;8.868;2022-11-15T14:41:39;13.90;81.60
19180;DHT22;9722;48.754;8.868;2022-11-15T14:44:59;13.90;82.10
19180;DHT22;9722;48.754;8.868;2022-11-15T14:48:20;13.90;82.50
19180;DHT22;9722;48.754;8.868;2022-11-15T14:51:42;13.80;82.90
19180;DHT22;9722;48.754;8.868;2022-11-15T14:55:10;13.80;83.30
19180;DHT22;9722;48.754;8.868;2022-11-15T14:58:32;13.70;83.70
19180;DHT22;9722;48.754;8.868;2022-11-15T15:01:52;13.70;84.20
19180;DHT22;9722;48.754;8.868;2022-11-15T15:05:29;13.60;84.70
19180;DHT22;9722;48.754;8.868;2022-11-15T15:08:50;13.60;85.30
19180;DHT22;9722;48.754;8.868;2022-11-15T15:12:18;13.50;85.90
19180;DHT22;9722;48.754;8.868;2022-11-15T15:15:39;13.50;86.80
19180;DHT22;9722;48.754;8.868;2022-11-15T15:19:00;13.40;87.10
19180;DHT22;9722;48.754;8.868;2022-11-15T15:22:20;13.40;87.60
19180;DHT22;9722;48.754;8.868;2022-11-15T15:25:47;13.30;87.90
19180;DHT22;9722;48.754;8.868;2022-11-15T15:29:09;13.20;88.40
19180;DHT22;9722;48.754;8.868;2022-11-15T15:32:30;13.20;88.90
19180;DHT22;9722;48.754;8.868;2022-11-15T15:35:50;13.20;89.40
19180;DHT22;9722;48.754;8.868;2022-11-15T15:39:10;13.10;89.60
19180;DHT22;9722;48.754;8.868;2022-11-15T15:42:32;13.10;90.00
19180;DHT22;9722;48.754;8.868;2022-11-15T15:45:52;13.10;90.10
19180;DHT22;9722;48.754;8.868;2022-11-15T15:49:13;13.00;90.10
19180;DHT22;9722;48.754;8.868;2022-11-15T15:52:33;13.00;90.10
19180;DHT22;9722;48.754;8.868;2022-11-15T15:55:54;13.00;90.30
19180;DHT22;9722;48.754;8.868;2022-11-15T15:59:14;13.00;90.40
19180;DHT22;9722;48.754;8.868;2022-11-15T16:02:35;13.00;90.70
19180;DHT22;9722;48.754;8.868;2022-11-15T16:05:55;12.90;91.00
19180;DHT22;9722;48.754;8.868;2022-11-15T16:09:17;12.80;91.00
19180;DHT22;9722;48.754;8.868;2022-11-15T16:12:38;12.80;91.10
19180;DHT22;9722;48.754;8.868;2022-11-15T16:15:58;12.80;91.20
19180;DHT22;9722;48.754;8.868;2022-11-15T16:19:19;12.70;91.30
19180;DHT22;9722;48.754;8.868;2022-11-15T16:22:39;12.70;91.50
19180;DHT22;9722;48.754;8.868;2022-11-15T16:26:00;12.70;91.70
19180;DHT22;9722;48.754;8.868;2022-11-15T16:29:23;12.60;91.90
19180;DHT22;9722;48.754;8.868;2022-11-15T16:32:43;12.60;92.00
19180;DHT22;9722;48.754;8.868;2022-11-15T16:36:10;12.50;92.20
19180;DHT22;9722;48.754;8.868;2022-11-15T16:39:32;12.50;92.40
19180;DHT22;9722;48.754;8.868;2022-11-15T16:42:53;12.50;92.60
19180;DHT22;9722;48.754;8.868;2022-11-15T16:46:23;12.50;92.70
19180;DHT22;9722;48.754;8.868;2022-11-15T16:49:44;12.40;92.80
19180;DHT22;9722;48.754;8.868;2022-11-15T16:53:05;12.40;92.80
19180;DHT22;9722;48.754;8.868;2022-11-15T16:56:30;12.40;92.80
19180;DHT22;9722;48.754;8.868;2022-11-15T16:59:50;12.40;92.80
19180;DHT22;9722;48.754;8.868;2022-11-15T17:03:11;12.40;92.90
19180;DHT22;9722;48.754;8.868;2022-11-15T17:06:31;12.30;92.90
19180;DHT22;9722;48.754;8.868;2022-11-15T17:09:52;12.30;92.90
19180;DHT22;9722;48.754;8.868;2022-11-15T17:13:13;12.30;93.10
19180;DHT22;9722;48.754;8.868;2022-11-15T17:16:33;12.20;93.00
19180;DHT22;9722;48.754;8.868;2022-11-15T17:19:55;12.20;93.20
19180;DHT22;9722;48.754;8.868;2022-11-15T17:23:15;12.20;93.40
19180;DHT22;9722;48.754;8.868;2022-11-15T17:26:37;12.20;93.60
19180;DHT22;9722;48.754;8.868;2022-11-15T17:29:57;12.10;93.70
19180;DHT22;9722;48.754;8.868;2022-11-15T17:33:18;12.10;93.90
19180;DHT22;9722;48.754;8.868;2022-11-15T17:36:38;12.00;94.00
19180;DHT22;9722;48.754;8.868;2022-11-15T17:39:59;12.00;94.20
19180;DHT22;9722;48.754;8.868;2022-11-15T17:43:19;12.00;94.40
19180;DHT22;9722;48.754;8.868;2022-11-15T17:46:40;11.90;94.40
19180;DHT22;9722;48.754;8.868;2022-11-15T17:50:01;11.90;94.50
19180;DHT22;9722;48.754;8.868;2022-11-15T17:53:21;11.90;94.60
19180;DHT22;9722;48.754;8.868;2022-11-15T17:56:42;11.90;94.70
19180;DHT22;9722;48.754;8.868;2022-11-15T18:00:03;11.80;94.80
19180;DHT22;9722;48.754;8.868;2022-11-15T18:03:24;11.80;95.00
19180;DHT22;9722;48.754;8.868;2022-11-15T18:06:44;11.70;95.10
19180;DHT22;9722;48.754;8.868;2022-11-15T18:10:05;11.80;95.30
19180;DHT22;9722;48.754;8.868;2022-11-15T18:13:26;11.80;95.30
19180;DHT22;9722;48.754;8.868;2022-11-15T18:16:47;11.80;95.40
19180;DHT22;9722;48.754;8.868;2022-11-15T18:20:07;11.80;95.50
19180;DHT22;9722;48.754;8.868;2022-11-15T18:23:29;11.70;95.50
19180;DHT22;9722;48.754;8.868;2022-11-15T18:26:50;11.80;95.60
19180;DHT22;9722;48.754;8.868;2022-11-15T18:30:11;11.80;95.60
19180;DHT22;9722;48.754;8.868;2022-11-15T18:33:32;11.80;95.50
19180;DHT22;9722;48.754;8.868;2022-11-15T18:36:53;11.90;95.60
19180;DHT22;9722;48.754;8.868;2022-11-15T18:40:14;11.90;95.50
19180;DHT22;9722;48.754;8.868;2022-11-15T18:43:35;11.90;95.50
19180;DHT22;9722;48.754;8.868;2022-11-15T18:46:56;11.90;95.50
19180;DHT22;9722;48.754;8.868;2022-11-15T18:50:17;11.90;95.50
19180;DHT22;9722;48.754;8.868;2022-11-15T18:53:38;11.90;95.60
19180;DHT22;9722;48.754;8.868;2022-11-15T18:56:59;11.90;95.60
19180;DHT22;9722;48.754;8.868;2022-11-15T19:00:20;11.90;95.60
19180;DHT22;9722;48.754;8.868;2022-11-15T19:03:42;11.90;95.60
19180;DHT22;9722;48.754;8.868;2022-11-15T19:07:03;11.80;95.60
19180;DHT22;9722;48.754;8.868;2022-11-15T19:10:24;11.80;95.70
19180;DHT22;9722;48.754;8.868;2022-11-15T19:13:45;11.80;95.80
19180;DHT22;9722;48.754;8.868;2022-11-15T19:17:06;11.70;95.80
19180;DHT22;9722;48.754;8.868;2022-11-15T19:20:26;11.70;95.90
19180;DHT22;9722;48.754;8.868;2022-11-15T19:23:47;11.70;96.00
19180;DHT22;9722;48.754;8.868;2022-11-15T19:27:07;11.60;96.10
19180;DHT22;9722;48.754;8.868;2022-11-15T19:30:28;11.60;96.20
19180;DHT22;9722;48.754;8.868;2022-11-15T19:33:49;11.60;96.20
19180;DHT22;9722;48.754;8.868;2022-11-15T19:37:10;11.60;96.30
19180;DHT22;9722;48.754;8.868;2022-11-15T19:40:32;11.60;96.40
19180;DHT22;9722;48.754;8.868;2022-11-15T19:43:53;11.60;96.40
19180;DHT22;9722;48.754;8.868;2022-11-15T19:47:13;11.60;96.40
19180;DHT22;9722;48.754;8.868;2022-11-15T19:50:36;11.60;96.50
19180;DHT22;9722;48.754;8.868;2022-11-15T19:53:58;11.60;96.50
19180;DHT22;9722;48.754;8.868;2022-11-15T19:57:20;11.60;96.50
19180;DHT22;9722;48.754;8.868;2022-11-15T20:00:41;11.60;96.60
19180;DHT22;9722;48.754;8.868;2022-11-15T20:04:01;11.60;96.70
19180;DHT22;9722;48.754;8.868;2022-11-15T20:07:22;11.60;96.70
19180;DHT22;9722;48.754;8.868;2022-11-15T20:10:43;11.50;96.80
19180;DHT22;9722;48.754;8.868;2022-11-15T20:14:05;11.50;96.90
19180;DHT22;9722;48.754;8.868;2022-11-15T20:17:27;11.50;97.00
19180;DHT22;9722;48.754;8.868;2022-11-15T20:20:48;11.40;97.00
19180;DHT22;9722;48.754;8.868;2022-11-15T20:24:09;11.40;97.10
19180;DHT22;9722;48.754;8.868;2022-11-15T20:27:30;11.40;97.10
19180;DHT22;9722;48.754;8.868;2022-11-15T20:30:55;11.50;97.20
19180;DHT22;9722;48.754;8.868;2022-11-15T20:34:16;11.40;97.30
19180;DHT22;9722;48.754;8.868;2022-11-15T20:37:37;11.50;97.30
19180;DHT22;9722;48.754;8.868;2022-11-15T20:40:57;11.40;97.30
19180;DHT22;9722;48.754;8.868;2022-11-15T20:44:18;11.40;97.30
19180;DHT22;9722;48.754;8.868;2022-11-15T20:47:38;11.40;97.30
19180;DHT22;9722;48.754;8.868;2022-11-15T20:51:09;11.40;97.30
19180;DHT22;9722;48.754;8.868;2022-11-15T20:54:30;11.40;97.30
19180;DHT22;9722;48.754;8.868;2022-11-15T20:57:50;11.40;97.20
19180;DHT22;9722;48.754;8.868;2022-11-15T21:01:12;11.40;97.20
19180;DHT22;9722;48.754;8.868;2022-11-15T21:04:34;11.50;97.20
19180;DHT22;9722;48.754;8.868;2022-11-15T21:07:54;11.40;97.10
19180;DHT22;9722;48.754;8.868;2022-11-15T21:11:15;11.40;97.00
19180;DHT22;9722;48.754;8.868;2022-11-15T21:14:54;11.50;96.90
19180;DHT22;9722;48.754;8.868;2022-11-15T21:18:15;11.40;96.60
19180;DHT22;9722;48.754;8.868;2022-11-15T21:21:36;11.50;96.50
19180;DHT22;9722;48.754;8.868;2022-11-15T21:24:57;11.50;96.60
19180;DHT22;9722;48.754;8.868;2022-11-15T21:28:18;11.50;96.40
19180;DHT22;9722;48.754;8.868;2022-11-15T21:31:39;11.50;96.50
19180;DHT22;9722;48.754;8.868;2022-11-15T21:34:59;11.40;96.40
19180;DHT22;9722;48.754;8.868;2022-11-15T21:38:20;11.40;96.50
19180;DHT22;9722;48.754;8.868;2022-11-15T21:41:43;11.30;96.60
19180;DHT22;9722;48.754;8.868;2022-11-15T21:45:04;11.30;96.80
19180;DHT22;9722;48.754;8.868;2022-11-15T21:48:26;11.20;97.00
19180;DHT22;9722;48.754;8.868;2022-11-15T21:51:47;11.20;97.20
19180;DHT22;9722;48.754;8.868;2022-11-15T21:55:08;11.20;97.20
19180;DHT22;9722;48.754;8.868;2022-11-15T21:58:29;11.20;97.40
19180;DHT22;9722;48.754;8.868;2022-11-15T22:01:50;11.20;97.30
19180;DHT22;9722;48.754;8.868;2022-11-15T22:05:29;11.20;97.30
19180;DHT22;9722;48.754;8.868;2022-11-15T22:08:49;11.20;97.20
19180;DHT22;9722;48.754;8.868;2022-11-15T22:12:10;11.20;97.10
19180;DHT22;9722;48.754;8.868;2022-11-15T22:15:31;11.20;97.10
19180;DHT22;9722;48.754;8.868;2022-11-15T22:18:51;11.20;97.00
19180;DHT22;9722;48.754;8.868;2022-11-15T22:22:12;11.20;97.00
19180;DHT22;9722;48.754;8.868;2022-11-15T22:25:32;11.20;97.00
19180;DHT22;9722;48.754;8.868;2022-11-15T22:28:53;11.20;96.90
19180;DHT22;9722;48.754;8.868;2022-11-15T22:32:13;11.20;96.90
19180;DHT22;9722;48.754;8.868;2022-11-15T22:35:34;11.20;96.90
19180;DHT22;9722;48.754;8.868;2022-11-15T22:38:55;11.10;96.90
19180;DHT22;9722;48.754;8.868;2022-11-15T22:42:16;11.10;97.00
19180;DHT22;9722;48.754;8.868;2022-11-15T22:45:36;11.10;97.10
19180;DHT22;9722;48.754;8.868;2022-11-15T22:48:57;11.00;97.30
19180;DHT22;9722;48.754;8.868;2022-11-15T22:52:17;10.90;97.40
19180;DHT22;9722;48.754;8.868;2022-11-15T22:55:39;10.90;97.70
19180;DHT22;9722;48.754;8.868;2022-11-15T22:59:00;10.80;97.80
19180;DHT22;9722;48.754;8.868;2022-11-15T23:02:21;10.80;98.10
19180;DHT22;9722;48.754;8.868;2022-11-15T23:05:41;10.80;98.30
19180;DHT22;9722;48.754;8.868;2022-11-15T23:09:02;10.80;98.90
19180;DHT22;9722;48.754;8.868;2022-11-15T23:12:22;10.80;98.70
19180;DHT22;9722;48.754;8.868;2022-11-15T23:16:09;10.70;98.80
19180;DHT22;9722;48.754;8.868;2022-11-15T23:19:42;10.70;99.00
19180;DHT22;9722;48.754;8.868;2022-11-15T23:23:02;10.60;99.10
19180;DHT22;9722;48.754;8.868;2022-11-15T23:26:23;10.60;99.20